sensor_id;sensor_type;location;lat;lon;timestamp;P1;durP1;ratioP1;P2;durP2;ratioP2
52926;SDS011;40783;49.710;8.842;2022-08-02T00:01:55;6.15;;;3.45;;
52926;SDS011;40783;49.710;8.842;2022-08-02T00:04:21;5.75;;;3.35;;
52926;SDS011;40783;49.710;8.842;2022-08-02T00:06:46;6.72;;;3.15;;
52926;SDS011;40783;49.710;8.842;2022-08-02T00:11:37;7.32;;;2.90;;
52926;SDS011;40783;49.710;8.842;2022-08-02T00:16:30;5.32;;;3.05;;
52926;SDS011;40783;49.710;8.842;2022-08-02T00:18:58;5.22;;;3.75;;
52926;SDS011;40783;49.710;8.842;2022-08-02T00:21:23;8.98;;;3.80;;
52926;SDS011;40783;49.710;8.842;2022-08-02T00:26:14;4.28;;;2.80;;
52926;SDS011;40783;49.710;8.842;2022-08-02T00:31:05;6.05;;;3.92;;
52926;SDS011;40783;49.710;8.842;2022-08-02T00:33:32;5.70;;;3.00;;
52926;SDS011;40783;49.710;8.842;2022-08-02T00:36:00;6.20;;;3.63;;
52926;SDS011;40783;49.710;8.842;2022-08-02T00:38:28;6.32;;;2.92;;
52926;SDS011;40783;49.710;8.842;2022-08-02T00:40:53;4.25;;;3.15;;
52926;SDS011;40783;49.710;8.842;2022-08-02T00:45:46;6.33;;;4.00;;
52926;SDS011;40783;49.710;8.842;2022-08-02T00:48:14;6.35;;;3.65;;
52926;SDS011;40783;49.710;8.842;2022-08-02T00:50:39;7.60;;;4.57;;
52926;SDS011;40783;49.710;8.842;2022-08-02T00:55:33;7.07;;;4.45;;
52926;SDS011;40783;49.710;8.842;2022-08-02T00:57:59;9.00;;;3.97;;
52926;SDS011;40783;49.710;8.842;2022-08-02T01:02:49;8.40;;;3.87;;
52926;SDS011;40783;49.710;8.842;2022-08-02T01:07:41;6.72;;;4.95;;
52926;SDS011;40783;49.710;8.842;2022-08-02T01:10:08;6.13;;;4.03;;
52926;SDS011;40783;49.710;8.842;2022-08-02T01:15:03;6.82;;;3.38;;
52926;SDS011;40783;49.710;8.842;2022-08-02T01:17:43;4.60;;;3.03;;
52926;SDS011;40783;49.710;8.842;2022-08-02T01:31:11;8.48;;;4.47;;
52926;SDS011;40783;49.710;8.842;2022-08-02T01:33:44;7.95;;;4.32;;
52926;SDS011;40783;49.710;8.842;2022-08-02T01:36:16;5.72;;;3.67;;
52926;SDS011;40783;49.710;8.842;2022-08-02T01:38:44;7.07;;;3.83;;
52926;SDS011;40783;49.710;8.842;2022-08-02T01:41:18;6.72;;;4.35;;
52926;SDS011;40783;49.710;8.842;2022-08-02T01:43:47;6.05;;;3.75;;
52926;SDS011;40783;49.710;8.842;2022-08-02T01:46:19;8.20;;;3.30;;
52926;SDS011;40783;49.710;8.842;2022-08-02T01:48:46;5.57;;;3.92;;
52926;SDS011;40783;49.710;8.842;2022-08-02T01:51:15;9.82;;;4.15;;
52926;SDS011;40783;49.710;8.842;2022-08-02T01:53:42;5.90;;;4.80;;
52926;SDS011;40783;49.710;8.842;2022-08-02T01:56:12;6.90;;;4.07;;
52926;SDS011;40783;49.710;8.842;2022-08-02T01:58:38;6.95;;;4.05;;
52926;SDS011;40783;49.710;8.842;2022-08-02T02:01:06;5.43;;;3.72;;
52926;SDS011;40783;49.710;8.842;2022-08-02T02:03:37;7.10;;;4.05;;
52926;SDS011;40783;49.710;8.842;2022-08-02T02:06:04;8.63;;;4.68;;
52926;SDS011;40783;49.710;8.842;2022-08-02T02:08:33;7.63;;;4.60;;
52926;SDS011;40783;49.710;8.842;2022-08-02T02:11:08;6.75;;;4.05;;
52926;SDS011;40783;49.710;8.842;2022-08-02T02:13:33;7.30;;;4.65;;
52926;SDS011;40783;49.710;8.842;2022-08-02T02:16:04;7.38;;;3.97;;
52926;SDS011;40783;49.710;8.842;2022-08-02T02:18:31;8.68;;;5.32;;
52926;SDS011;40783;49.710;8.842;2022-08-02T02:21:07;6.43;;;4.65;;
52926;SDS011;40783;49.710;8.842;2022-08-02T02:23:35;9.77;;;5.00;;
52926;SDS011;40783;49.710;8.842;2022-08-02T02:28:28;8.77;;;5.53;;
52926;SDS011;40783;49.710;8.842;2022-08-02T02:30:59;8.30;;;4.35;;
52926;SDS011;40783;49.710;8.842;2022-08-02T02:33:30;6.50;;;4.65;;
52926;SDS011;40783;49.710;8.842;2022-08-02T02:35:57;7.20;;;4.35;;
52926;SDS011;40783;49.710;8.842;2022-08-02T02:38:27;5.72;;;3.83;;
52926;SDS011;40783;49.710;8.842;2022-08-02T02:41:00;9.23;;;5.03;;
52926;SDS011;40783;49.710;8.842;2022-08-02T02:43:29;7.70;;;4.50;;
52926;SDS011;40783;49.710;8.842;2022-08-02T02:45:57;5.78;;;3.42;;
52926;SDS011;40783;49.710;8.842;2022-08-02T02:48:25;9.55;;;3.53;;
52926;SDS011;40783;49.710;8.842;2022-08-02T02:50:53;7.47;;;4.95;;
52926;SDS011;40783;49.710;8.842;2022-08-02T02:55:47;7.88;;;4.05;;
52926;SDS011;40783;49.710;8.842;2022-08-02T02:58:15;6.35;;;4.35;;
52926;SDS011;40783;49.710;8.842;2022-08-02T03:00:43;8.88;;;4.35;;
52926;SDS011;40783;49.710;8.842;2022-08-02T03:03:27;10.00;;;4.10;;
52926;SDS011;40783;49.710;8.842;2022-08-02T03:05:57;6.95;;;4.00;;
52926;SDS011;40783;49.710;8.842;2022-08-02T03:08:27;7.68;;;4.13;;
52926;SDS011;40783;49.710;8.842;2022-08-02T03:13:18;7.93;;;4.25;;
52926;SDS011;40783;49.710;8.842;2022-08-02T03:18:28;10.77;;;4.40;;
52926;SDS011;40783;49.710;8.842;2022-08-02T03:20:57;7.15;;;4.30;;
52926;SDS011;40783;49.710;8.842;2022-08-02T03:23:24;13.35;;;4.85;;
52926;SDS011;40783;49.710;8.842;2022-08-02T03:28:14;13.13;;;4.90;;
52926;SDS011;40783;49.710;8.842;2022-08-02T03:30:43;6.82;;;4.43;;
52926;SDS011;40783;49.710;8.842;2022-08-02T03:35:34;6.60;;;4.03;;
52926;SDS011;40783;49.710;8.842;2022-08-02T03:38:03;6.72;;;4.97;;
52926;SDS011;40783;49.710;8.842;2022-08-02T03:40:31;6.93;;;4.68;;
52926;SDS011;40783;49.710;8.842;2022-08-02T03:42:57;5.75;;;3.92;;
52926;SDS011;40783;49.710;8.842;2022-08-02T03:45:24;9.52;;;5.15;;
52926;SDS011;40783;49.710;8.842;2022-08-02T03:47:52;6.93;;;4.70;;
52926;SDS011;40783;49.710;8.842;2022-08-02T03:52:44;7.00;;;4.13;;
52926;SDS011;40783;49.710;8.842;2022-08-02T03:55:10;7.00;;;3.92;;
52926;SDS011;40783;49.710;8.842;2022-08-02T03:57:38;9.15;;;4.55;;
52926;SDS011;40783;49.710;8.842;2022-08-02T04:00:05;14.05;;;4.85;;
52926;SDS011;40783;49.710;8.842;2022-08-02T04:02:35;8.35;;;4.47;;
52926;SDS011;40783;49.710;8.842;2022-08-02T04:07:26;6.70;;;3.63;;
52926;SDS011;40783;49.710;8.842;2022-08-02T04:09:51;7.03;;;4.03;;
52926;SDS011;40783;49.710;8.842;2022-08-02T04:14:42;7.80;;;3.50;;
52926;SDS011;40783;49.710;8.842;2022-08-02T04:17:08;9.23;;;3.95;;
52926;SDS011;40783;49.710;8.842;2022-08-02T04:19:40;7.43;;;3.92;;
52926;SDS011;40783;49.710;8.842;2022-08-02T04:22:17;9.43;;;4.10;;
52926;SDS011;40783;49.710;8.842;2022-08-02T04:24:51;8.75;;;4.28;;
52926;SDS011;40783;49.710;8.842;2022-08-02T04:27:21;10.20;;;5.00;;
52926;SDS011;40783;49.710;8.842;2022-08-02T04:29:52;9.88;;;3.85;;
52926;SDS011;40783;49.710;8.842;2022-08-02T04:32:23;6.75;;;3.88;;
52926;SDS011;40783;49.710;8.842;2022-08-02T04:34:51;9.82;;;4.28;;
52926;SDS011;40783;49.710;8.842;2022-08-02T04:37:17;7.93;;;4.25;;
52926;SDS011;40783;49.710;8.842;2022-08-02T04:39:47;6.72;;;4.55;;
52926;SDS011;40783;49.710;8.842;2022-08-02T04:42:19;5.90;;;3.55;;
52926;SDS011;40783;49.710;8.842;2022-08-02T04:44:48;4.30;;;2.70;;
52926;SDS011;40783;49.710;8.842;2022-08-02T04:47:15;8.90;;;4.20;;
52926;SDS011;40783;49.710;8.842;2022-08-02T04:54:35;9.82;;;3.60;;
52926;SDS011;40783;49.710;8.842;2022-08-02T04:57:05;5.60;;;3.58;;
52926;SDS011;40783;49.710;8.842;2022-08-02T04:59:52;5.45;;;3.72;;
52926;SDS011;40783;49.710;8.842;2022-08-02T05:04:43;6.43;;;3.77;;
52926;SDS011;40783;49.710;8.842;2022-08-02T05:07:08;10.18;;;5.20;;
52926;SDS011;40783;49.710;8.842;2022-08-02T05:12:01;7.43;;;4.43;;
52926;SDS011;40783;49.710;8.842;2022-08-02T05:14:29;10.27;;;5.10;;
52926;SDS011;40783;49.710;8.842;2022-08-02T05:19:20;7.43;;;3.60;;
52926;SDS011;40783;49.710;8.842;2022-08-02T05:24:13;8.67;;;5.20;;
52926;SDS011;40783;49.710;8.842;2022-08-02T05:26:39;7.97;;;4.85;;
52926;SDS011;40783;49.710;8.842;2022-08-02T05:29:09;8.48;;;4.85;;
52926;SDS011;40783;49.710;8.842;2022-08-02T05:34:11;8.38;;;4.80;;
52926;SDS011;40783;49.710;8.842;2022-08-02T05:39:11;8.60;;;5.55;;
52926;SDS011;40783;49.710;8.842;2022-08-02T05:41:46;7.82;;;5.32;;
52926;SDS011;40783;49.710;8.842;2022-08-02T05:44:12;6.80;;;3.97;;
52926;SDS011;40783;49.710;8.842;2022-08-02T05:46:39;7.40;;;4.65;;
52926;SDS011;40783;49.710;8.842;2022-08-02T05:51:54;6.45;;;4.47;;
52926;SDS011;40783;49.710;8.842;2022-08-02T05:54:26;8.52;;;5.50;;
52926;SDS011;40783;49.710;8.842;2022-08-02T05:57:15;7.13;;;4.43;;
52926;SDS011;40783;49.710;8.842;2022-08-02T05:59:57;7.78;;;4.55;;
52926;SDS011;40783;49.710;8.842;2022-08-02T06:05:11;8.23;;;4.75;;
52926;SDS011;40783;49.710;8.842;2022-08-02T06:07:39;5.82;;;4.38;;
52926;SDS011;40783;49.710;8.842;2022-08-02T06:10:09;6.90;;;4.43;;
52926;SDS011;40783;49.710;8.842;2022-08-02T06:12:48;6.85;;;4.45;;
52926;SDS011;40783;49.710;8.842;2022-08-02T06:15:17;11.02;;;5.10;;
52926;SDS011;40783;49.710;8.842;2022-08-02T06:17:46;8.75;;;4.70;;
52926;SDS011;40783;49.710;8.842;2022-08-02T06:20:12;6.03;;;4.40;;
52926;SDS011;40783;49.710;8.842;2022-08-02T06:22:42;6.20;;;4.13;;
52926;SDS011;40783;49.710;8.842;2022-08-02T06:25:11;6.40;;;4.47;;
52926;SDS011;40783;49.710;8.842;2022-08-02T06:27:38;7.35;;;4.60;;
52926;SDS011;40783;49.710;8.842;2022-08-02T06:30:05;5.50;;;3.85;;
52926;SDS011;40783;49.710;8.842;2022-08-02T06:32:34;6.80;;;3.70;;
52926;SDS011;40783;49.710;8.842;2022-08-02T06:35:03;5.18;;;3.55;;
52926;SDS011;40783;49.710;8.842;2022-08-02T06:37:35;6.75;;;4.00;;
52926;SDS011;40783;49.710;8.842;2022-08-02T06:40:26;5.50;;;2.90;;
52926;SDS011;40783;49.710;8.842;2022-08-02T06:45:21;5.50;;;3.83;;
52926;SDS011;40783;49.710;8.842;2022-08-02T06:47:46;6.05;;;3.60;;
52926;SDS011;40783;49.710;8.842;2022-08-02T06:50:11;7.22;;;3.85;;
52926;SDS011;40783;49.710;8.842;2022-08-02T06:52:37;5.32;;;3.72;;
52926;SDS011;40783;49.710;8.842;2022-08-02T06:55:03;4.97;;;3.03;;
52926;SDS011;40783;49.710;8.842;2022-08-02T06:57:29;5.70;;;3.47;;
52926;SDS011;40783;49.710;8.842;2022-08-02T06:59:55;3.78;;;2.60;;
52926;SDS011;40783;49.710;8.842;2022-08-02T07:02:25;3.55;;;2.53;;
52926;SDS011;40783;49.710;8.842;2022-08-02T07:04:53;10.70;;;3.03;;
52926;SDS011;40783;49.710;8.842;2022-08-02T07:07:19;4.07;;;2.63;;
52926;SDS011;40783;49.710;8.842;2022-08-02T07:09:47;4.07;;;2.83;;
52926;SDS011;40783;49.710;8.842;2022-08-02T07:12:13;3.28;;;2.63;;
52926;SDS011;40783;49.710;8.842;2022-08-02T07:14:40;4.60;;;2.85;;
52926;SDS011;40783;49.710;8.842;2022-08-02T07:17:08;4.28;;;2.67;;
52926;SDS011;40783;49.710;8.842;2022-08-02T07:19:36;4.93;;;2.53;;
52926;SDS011;40783;49.710;8.842;2022-08-02T07:22:04;3.78;;;2.95;;
52926;SDS011;40783;49.710;8.842;2022-08-02T07:24:33;5.03;;;2.78;;
52926;SDS011;40783;49.710;8.842;2022-08-02T07:26:58;8.93;;;3.70;;
52926;SDS011;40783;49.710;8.842;2022-08-02T07:29:26;3.40;;;2.20;;
52926;SDS011;40783;49.710;8.842;2022-08-02T07:31:54;4.15;;;2.30;;
52926;SDS011;40783;49.710;8.842;2022-08-02T07:34:25;4.07;;;2.20;;
52926;SDS011;40783;49.710;8.842;2022-08-02T07:36:50;4.45;;;2.40;;
52926;SDS011;40783;49.710;8.842;2022-08-02T07:39:18;4.63;;;2.63;;
52926;SDS011;40783;49.710;8.842;2022-08-02T07:41:43;5.45;;;1.98;;
52926;SDS011;40783;49.710;8.842;2022-08-02T07:44:12;2.72;;;1.50;;
52926;SDS011;40783;49.710;8.842;2022-08-02T07:46:40;2.97;;;1.63;;
52926;SDS011;40783;49.710;8.842;2022-08-02T07:49:06;3.78;;;2.28;;
52926;SDS011;40783;49.710;8.842;2022-08-02T07:51:31;4.28;;;2.17;;
52926;SDS011;40783;49.710;8.842;2022-08-02T07:54:00;6.00;;;2.13;;
52926;SDS011;40783;49.710;8.842;2022-08-02T07:56:28;3.60;;;1.90;;
52926;SDS011;40783;49.710;8.842;2022-08-02T07:58:53;2.50;;;1.67;;
52926;SDS011;40783;49.710;8.842;2022-08-02T08:01:25;2.85;;;1.85;;
52926;SDS011;40783;49.710;8.842;2022-08-02T08:03:53;1.52;;;1.42;;
52926;SDS011;40783;49.710;8.842;2022-08-02T08:06:19;3.08;;;1.73;;
52926;SDS011;40783;49.710;8.842;2022-08-02T08:08:44;2.47;;;1.40;;
52926;SDS011;40783;49.710;8.842;2022-08-02T08:11:12;6.05;;;1.63;;
52926;SDS011;40783;49.710;8.842;2022-08-02T08:13:37;3.20;;;1.63;;
52926;SDS011;40783;49.710;8.842;2022-08-02T08:16:05;3.75;;;1.85;;
52926;SDS011;40783;49.710;8.842;2022-08-02T08:18:31;2.60;;;1.33;;
52926;SDS011;40783;49.710;8.842;2022-08-02T08:20:56;4.35;;;1.88;;
52926;SDS011;40783;49.710;8.842;2022-08-02T08:23:24;2.65;;;1.77;;
52926;SDS011;40783;49.710;8.842;2022-08-02T08:25:49;3.05;;;1.88;;
52926;SDS011;40783;49.710;8.842;2022-08-02T08:28:15;2.95;;;1.65;;
52926;SDS011;40783;49.710;8.842;2022-08-02T08:30:40;2.17;;;1.75;;
52926;SDS011;40783;49.710;8.842;2022-08-02T08:33:08;4.13;;;1.42;;
52926;SDS011;40783;49.710;8.842;2022-08-02T08:35:34;2.58;;;1.70;;
52926;SDS011;40783;49.710;8.842;2022-08-02T08:37:59;2.85;;;1.45;;
52926;SDS011;40783;49.710;8.842;2022-08-02T08:40:25;2.92;;;1.70;;
52926;SDS011;40783;49.710;8.842;2022-08-02T08:42:53;1.70;;;1.15;;
52926;SDS011;40783;49.710;8.842;2022-08-02T08:45:18;3.67;;;1.95;;
52926;SDS011;40783;49.710;8.842;2022-08-02T08:47:43;3.67;;;1.90;;
52926;SDS011;40783;49.710;8.842;2022-08-02T08:50:16;2.00;;;1.33;;
52926;SDS011;40783;49.710;8.842;2022-08-02T08:53:09;1.77;;;1.55;;
52926;SDS011;40783;49.710;8.842;2022-08-02T08:55:34;2.17;;;1.45;;
52926;SDS011;40783;49.710;8.842;2022-08-02T08:58:01;2.22;;;1.50;;
52926;SDS011;40783;49.710;8.842;2022-08-02T09:00:32;3.92;;;1.58;;
52926;SDS011;40783;49.710;8.842;2022-08-02T09:03:03;1.27;;;1.02;;
52926;SDS011;40783;49.710;8.842;2022-08-02T09:05:29;4.70;;;1.45;;
52926;SDS011;40783;49.710;8.842;2022-08-02T09:07:58;1.85;;;1.30;;
52926;SDS011;40783;49.710;8.842;2022-08-02T09:10:56;3.15;;;1.98;;
52926;SDS011;40783;49.710;8.842;2022-08-02T09:18:42;4.75;;;1.33;;
52926;SDS011;40783;49.710;8.842;2022-08-02T09:21:12;1.35;;;1.23;;
52926;SDS011;40783;49.710;8.842;2022-08-02T09:23:42;1.98;;;1.35;;
52926;SDS011;40783;49.710;8.842;2022-08-02T09:26:13;2.47;;;1.58;;
52926;SDS011;40783;49.710;8.842;2022-08-02T09:28:41;1.00;;;0.90;;
52926;SDS011;40783;49.710;8.842;2022-08-02T09:31:17;2.40;;;1.58;;
52926;SDS011;40783;49.710;8.842;2022-08-02T09:33:55;2.15;;;1.55;;
52926;SDS011;40783;49.710;8.842;2022-08-02T09:36:23;1.52;;;1.40;;
52926;SDS011;40783;49.710;8.842;2022-08-02T09:38:56;2.17;;;1.38;;
52926;SDS011;40783;49.710;8.842;2022-08-02T09:41:28;1.83;;;1.20;;
52926;SDS011;40783;49.710;8.842;2022-08-02T09:43:55;1.38;;;1.17;;
52926;SDS011;40783;49.710;8.842;2022-08-02T09:46:23;2.05;;;1.52;;
52926;SDS011;40783;49.710;8.842;2022-08-02T09:51:33;1.88;;;1.23;;
52926;SDS011;40783;49.710;8.842;2022-08-02T09:54:05;3.03;;;1.50;;
52926;SDS011;40783;49.710;8.842;2022-08-02T09:56:42;1.70;;;1.45;;
52926;SDS011;40783;49.710;8.842;2022-08-02T09:59:13;3.72;;;1.13;;
52926;SDS011;40783;49.710;8.842;2022-08-02T10:01:39;2.38;;;1.52;;
52926;SDS011;40783;49.710;8.842;2022-08-02T10:04:06;2.40;;;1.80;;
52926;SDS011;40783;49.710;8.842;2022-08-02T10:06:35;2.78;;;1.60;;
52926;SDS011;40783;49.710;8.842;2022-08-02T10:09:02;2.97;;;1.58;;
52926;SDS011;40783;49.710;8.842;2022-08-02T10:11:28;3.08;;;1.67;;
52926;SDS011;40783;49.710;8.842;2022-08-02T10:13:54;3.97;;;1.40;;
52926;SDS011;40783;49.710;8.842;2022-08-02T10:16:22;2.50;;;1.60;;
52926;SDS011;40783;49.710;8.842;2022-08-02T10:18:50;1.63;;;1.20;;
52926;SDS011;40783;49.710;8.842;2022-08-02T10:24:09;1.55;;;1.30;;
52926;SDS011;40783;49.710;8.842;2022-08-02T10:26:37;2.45;;;1.88;;
52926;SDS011;40783;49.710;8.842;2022-08-02T10:29:09;1.63;;;1.52;;
52926;SDS011;40783;49.710;8.842;2022-08-02T10:31:42;4.45;;;1.67;;
52926;SDS011;40783;49.710;8.842;2022-08-02T10:34:12;1.98;;;1.35;;
52926;SDS011;40783;49.710;8.842;2022-08-02T10:36:41;8.95;;;1.90;;
52926;SDS011;40783;49.710;8.842;2022-08-02T10:39:11;3.08;;;1.48;;
52926;SDS011;40783;49.710;8.842;2022-08-02T10:41:48;2.65;;;1.55;;
52926;SDS011;40783;49.710;8.842;2022-08-02T10:44:20;2.35;;;1.67;;
52926;SDS011;40783;49.710;8.842;2022-08-02T10:46:48;3.50;;;1.85;;
52926;SDS011;40783;49.710;8.842;2022-08-02T10:49:15;4.18;;;1.90;;
52926;SDS011;40783;49.710;8.842;2022-08-02T10:54:25;2.92;;;1.73;;
52926;SDS011;40783;49.710;8.842;2022-08-02T11:02:01;1.92;;;1.58;;
52926;SDS011;40783;49.710;8.842;2022-08-02T11:09:42;4.60;;;1.40;;
52926;SDS011;40783;49.710;8.842;2022-08-02T11:12:17;4.55;;;1.38;;
52926;SDS011;40783;49.710;8.842;2022-08-02T11:15:06;2.63;;;1.58;;
52926;SDS011;40783;49.710;8.842;2022-08-02T11:20:25;2.28;;;1.30;;
52926;SDS011;40783;49.710;8.842;2022-08-02T11:22:52;3.00;;;2.08;;
52926;SDS011;40783;49.710;8.842;2022-08-02T11:30:16;2.42;;;1.80;;
52926;SDS011;40783;49.710;8.842;2022-08-02T11:32:44;3.47;;;2.10;;
52926;SDS011;40783;49.710;8.842;2022-08-02T11:35:10;1.88;;;1.30;;
52926;SDS011;40783;49.710;8.842;2022-08-02T11:37:37;2.53;;;1.55;;
52926;SDS011;40783;49.710;8.842;2022-08-02T11:40:10;1.83;;;1.42;;
52926;SDS011;40783;49.710;8.842;2022-08-02T11:42:41;2.88;;;1.67;;
52926;SDS011;40783;49.710;8.842;2022-08-02T11:45:12;2.20;;;1.48;;
52926;SDS011;40783;49.710;8.842;2022-08-02T11:50:17;2.33;;;1.50;;
52926;SDS011;40783;49.710;8.842;2022-08-02T11:52:50;1.80;;;1.40;;
52926;SDS011;40783;49.710;8.842;2022-08-02T11:55:27;2.20;;;1.45;;
52926;SDS011;40783;49.710;8.842;2022-08-02T11:58:01;2.13;;;1.30;;
52926;SDS011;40783;49.710;8.842;2022-08-02T12:00:32;1.50;;;1.30;;
52926;SDS011;40783;49.710;8.842;2022-08-02T12:03:00;2.35;;;1.52;;
52926;SDS011;40783;49.710;8.842;2022-08-02T12:05:26;3.30;;;1.70;;
52926;SDS011;40783;49.710;8.842;2022-08-02T12:07:51;3.08;;;1.80;;
52926;SDS011;40783;49.710;8.842;2022-08-02T12:10:22;1.55;;;1.20;;
52926;SDS011;40783;49.710;8.842;2022-08-02T12:12:52;2.92;;;1.80;;
52926;SDS011;40783;49.710;8.842;2022-08-02T12:15:34;2.70;;;1.80;;
52926;SDS011;40783;49.710;8.842;2022-08-02T12:18:01;2.25;;;1.20;;
52926;SDS011;40783;49.710;8.842;2022-08-02T12:20:46;2.70;;;1.67;;
52926;SDS011;40783;49.710;8.842;2022-08-02T12:23:11;2.30;;;1.55;;
52926;SDS011;40783;49.710;8.842;2022-08-02T12:25:37;2.60;;;1.70;;
52926;SDS011;40783;49.710;8.842;2022-08-02T12:28:17;2.88;;;1.63;;
52926;SDS011;40783;49.710;8.842;2022-08-02T12:30:49;4.38;;;1.58;;
52926;SDS011;40783;49.710;8.842;2022-08-02T12:33:17;2.58;;;1.63;;
52926;SDS011;40783;49.710;8.842;2022-08-02T12:35:46;1.80;;;1.40;;
52926;SDS011;40783;49.710;8.842;2022-08-02T12:38:16;2.15;;;1.55;;
52926;SDS011;40783;49.710;8.842;2022-08-02T12:40:47;12.82;;;2.03;;
52926;SDS011;40783;49.710;8.842;2022-08-02T12:43:16;2.13;;;1.67;;
52926;SDS011;40783;49.710;8.842;2022-08-02T12:45:49;1.98;;;1.42;;
52926;SDS011;40783;49.710;8.842;2022-08-02T12:48:32;3.05;;;1.60;;
52926;SDS011;40783;49.710;8.842;2022-08-02T12:51:17;2.63;;;1.70;;
52926;SDS011;40783;49.710;8.842;2022-08-02T12:53:43;2.80;;;1.65;;
52926;SDS011;40783;49.710;8.842;2022-08-02T12:56:11;2.80;;;2.05;;
52926;SDS011;40783;49.710;8.842;2022-08-02T12:58:46;2.63;;;1.77;;
52926;SDS011;40783;49.710;8.842;2022-08-02T13:01:13;5.30;;;2.22;;
52926;SDS011;40783;49.710;8.842;2022-08-02T13:03:45;4.47;;;1.85;;
52926;SDS011;40783;49.710;8.842;2022-08-02T13:06:10;4.10;;;1.70;;
52926;SDS011;40783;49.710;8.842;2022-08-02T13:08:38;2.53;;;1.52;;
52926;SDS011;40783;49.710;8.842;2022-08-02T13:11:03;1.90;;;1.63;;
52926;SDS011;40783;49.710;8.842;2022-08-02T13:13:31;4.25;;;2.53;;
52926;SDS011;40783;49.710;8.842;2022-08-02T13:15:56;2.47;;;1.98;;
52926;SDS011;40783;49.710;8.842;2022-08-02T13:18:23;2.97;;;1.75;;
52926;SDS011;40783;49.710;8.842;2022-08-02T13:20:48;2.00;;;1.50;;
52926;SDS011;40783;49.710;8.842;2022-08-02T13:23:16;3.25;;;1.80;;
52926;SDS011;40783;49.710;8.842;2022-08-02T13:25:42;1.60;;;1.38;;
52926;SDS011;40783;49.710;8.842;2022-08-02T13:28:09;3.85;;;2.05;;
52926;SDS011;40783;49.710;8.842;2022-08-02T13:30:35;2.42;;;1.63;;
52926;SDS011;40783;49.710;8.842;2022-08-02T13:33:01;2.63;;;1.60;;
52926;SDS011;40783;49.710;8.842;2022-08-02T13:35:28;2.95;;;1.73;;
52926;SDS011;40783;49.710;8.842;2022-08-02T13:37:58;3.05;;;1.75;;
52926;SDS011;40783;49.710;8.842;2022-08-02T13:40:28;2.17;;;1.67;;
52926;SDS011;40783;49.710;8.842;2022-08-02T13:42:53;1.98;;;1.55;;
52926;SDS011;40783;49.710;8.842;2022-08-02T13:45:19;1.95;;;1.42;;
52926;SDS011;40783;49.710;8.842;2022-08-02T13:47:47;3.42;;;1.92;;
52926;SDS011;40783;49.710;8.842;2022-08-02T13:50:13;5.95;;;2.03;;
52926;SDS011;40783;49.710;8.842;2022-08-02T13:52:38;6.40;;;1.73;;
52926;SDS011;40783;49.710;8.842;2022-08-02T13:55:04;5.45;;;2.35;;
52926;SDS011;40783;49.710;8.842;2022-08-02T13:57:32;3.22;;;1.92;;
52926;SDS011;40783;49.710;8.842;2022-08-02T13:59:57;2.45;;;1.67;;
52926;SDS011;40783;49.710;8.842;2022-08-02T14:02:25;4.35;;;2.70;;
52926;SDS011;40783;49.710;8.842;2022-08-02T14:04:52;1.60;;;1.30;;
52926;SDS011;40783;49.710;8.842;2022-08-02T14:07:17;3.25;;;2.30;;
52926;SDS011;40783;49.710;8.842;2022-08-02T14:09:45;3.10;;;1.92;;
52926;SDS011;40783;49.710;8.842;2022-08-02T14:12:13;2.63;;;1.73;;
52926;SDS011;40783;49.710;8.842;2022-08-02T14:14:38;4.03;;;1.65;;
52926;SDS011;40783;49.710;8.842;2022-08-02T14:17:04;6.03;;;1.55;;
52926;SDS011;40783;49.710;8.842;2022-08-02T14:19:32;3.15;;;2.13;;
52926;SDS011;40783;49.710;8.842;2022-08-02T14:21:58;3.67;;;1.50;;
52926;SDS011;40783;49.710;8.842;2022-08-02T14:24:23;2.45;;;1.40;;
52926;SDS011;40783;49.710;8.842;2022-08-02T14:26:49;5.80;;;2.05;;
52926;SDS011;40783;49.710;8.842;2022-08-02T14:29:15;3.33;;;2.03;;
52926;SDS011;40783;49.710;8.842;2022-08-02T14:31:43;1.88;;;1.70;;
52926;SDS011;40783;49.710;8.842;2022-08-02T14:34:09;3.72;;;1.48;;
52926;SDS011;40783;49.710;8.842;2022-08-02T14:36:37;2.88;;;1.65;;
52926;SDS011;40783;49.710;8.842;2022-08-02T14:39:04;2.15;;;1.63;;
52926;SDS011;40783;49.710;8.842;2022-08-02T14:41:40;7.72;;;1.67;;
52926;SDS011;40783;49.710;8.842;2022-08-02T14:44:31;3.72;;;1.70;;
52926;SDS011;40783;49.710;8.842;2022-08-02T14:46:57;3.25;;;1.80;;
52926;SDS011;40783;49.710;8.842;2022-08-02T14:49:24;2.65;;;1.65;;
52926;SDS011;40783;49.710;8.842;2022-08-02T14:51:55;2.58;;;2.20;;
52926;SDS011;40783;49.710;8.842;2022-08-02T14:54:21;3.03;;;1.80;;
52926;SDS011;40783;49.710;8.842;2022-08-02T14:56:50;1.65;;;1.35;;
52926;SDS011;40783;49.710;8.842;2022-08-02T14:59:18;2.08;;;1.40;;
52926;SDS011;40783;49.710;8.842;2022-08-02T15:01:48;2.85;;;1.50;;
52926;SDS011;40783;49.710;8.842;2022-08-02T15:04:13;4.10;;;1.80;;
52926;SDS011;40783;49.710;8.842;2022-08-02T15:06:41;9.98;;;1.92;;
52926;SDS011;40783;49.710;8.842;2022-08-02T15:09:06;1.80;;;1.40;;
52926;SDS011;40783;49.710;8.842;2022-08-02T15:11:34;2.85;;;1.85;;
52926;SDS011;40783;49.710;8.842;2022-08-02T15:14:02;3.45;;;1.52;;
52926;SDS011;40783;49.710;8.842;2022-08-02T15:16:30;2.13;;;1.65;;
52926;SDS011;40783;49.710;8.842;2022-08-02T15:19:03;13.20;;;2.28;;
52926;SDS011;40783;49.710;8.842;2022-08-02T15:21:29;1.90;;;1.27;;
52926;SDS011;40783;49.710;8.842;2022-08-02T15:23:55;2.35;;;1.65;;
52926;SDS011;40783;49.710;8.842;2022-08-02T15:26:21;1.70;;;1.60;;
52926;SDS011;40783;49.710;8.842;2022-08-02T15:28:47;3.63;;;2.03;;
52926;SDS011;40783;49.710;8.842;2022-08-02T15:31:13;5.78;;;1.60;;
52926;SDS011;40783;49.710;8.842;2022-08-02T15:33:41;3.35;;;1.55;;
52926;SDS011;40783;49.710;8.842;2022-08-02T15:36:09;1.52;;;1.30;;
52926;SDS011;40783;49.710;8.842;2022-08-02T15:38:35;3.22;;;1.65;;
52926;SDS011;40783;49.710;8.842;2022-08-02T15:41:00;2.80;;;1.30;;
52926;SDS011;40783;49.710;8.842;2022-08-02T15:43:29;1.98;;;1.52;;
52926;SDS011;40783;49.710;8.842;2022-08-02T15:45:55;4.85;;;1.60;;
52926;SDS011;40783;49.710;8.842;2022-08-02T15:48:23;2.05;;;1.67;;
52926;SDS011;40783;49.710;8.842;2022-08-02T15:50:48;2.53;;;1.52;;
52926;SDS011;40783;49.710;8.842;2022-08-02T15:53:16;2.47;;;1.40;;
52926;SDS011;40783;49.710;8.842;2022-08-02T15:55:44;7.35;;;2.45;;
52926;SDS011;40783;49.710;8.842;2022-08-02T15:58:09;5.65;;;1.73;;
52926;SDS011;40783;49.710;8.842;2022-08-02T16:00:37;4.45;;;2.15;;
52926;SDS011;40783;49.710;8.842;2022-08-02T16:03:02;3.97;;;2.15;;
52926;SDS011;40783;49.710;8.842;2022-08-02T16:05:28;3.03;;;1.55;;
52926;SDS011;40783;49.710;8.842;2022-08-02T16:07:55;2.40;;;1.42;;
52926;SDS011;40783;49.710;8.842;2022-08-02T16:10:21;1.95;;;1.27;;
52926;SDS011;40783;49.710;8.842;2022-08-02T16:12:47;2.88;;;1.45;;
52926;SDS011;40783;49.710;8.842;2022-08-02T16:15:35;2.92;;;1.40;;
52926;SDS011;40783;49.710;8.842;2022-08-02T16:18:03;4.57;;;1.63;;
52926;SDS011;40783;49.710;8.842;2022-08-02T16:20:30;1.75;;;1.10;;
52926;SDS011;40783;49.710;8.842;2022-08-02T16:22:56;1.95;;;1.33;;
52926;SDS011;40783;49.710;8.842;2022-08-02T16:25:21;2.83;;;1.33;;
52926;SDS011;40783;49.710;8.842;2022-08-02T16:27:47;6.53;;;1.65;;
52926;SDS011;40783;49.710;8.842;2022-08-02T16:30:13;1.60;;;1.45;;
52926;SDS011;40783;49.710;8.842;2022-08-02T16:32:38;4.13;;;1.63;;
52926;SDS011;40783;49.710;8.842;2022-08-02T16:35:06;2.42;;;1.52;;
52926;SDS011;40783;49.710;8.842;2022-08-02T16:37:31;2.25;;;1.45;;
52926;SDS011;40783;49.710;8.842;2022-08-02T16:39:57;3.03;;;1.13;;
52926;SDS011;40783;49.710;8.842;2022-08-02T16:42:22;1.35;;;1.20;;
52926;SDS011;40783;49.710;8.842;2022-08-02T16:44:47;1.33;;;1.23;;
52926;SDS011;40783;49.710;8.842;2022-08-02T16:47:13;2.63;;;1.83;;
52926;SDS011;40783;49.710;8.842;2022-08-02T16:49:39;3.95;;;1.33;;
52926;SDS011;40783;49.710;8.842;2022-08-02T16:52:04;2.20;;;1.50;;
52926;SDS011;40783;49.710;8.842;2022-08-02T16:54:30;1.88;;;1.33;;